createdAt,value
2022-12-31T00:01:44.958Z,100358.88
2022-12-31T00:04:11.673Z,100360.97
2022-12-31T00:06:38.342Z,100358.47
2022-12-31T00:09:06.880Z,100360.94
2022-12-31T00:11:34.456Z,100369.72
2022-12-31T00:14:01.069Z,100375.34
2022-12-31T00:16:32.746Z,100389.72
2022-12-31T00:19:00.603Z,100387.63
2022-12-31T00:21:29.390Z,100384.13
2022-12-31T00:23:56.482Z,100388.91
2022-12-31T00:26:26.060Z,100402.06
2022-12-31T00:28:54.157Z,100403.50
2022-12-31T00:31:28.245Z,100418.31
2022-12-31T00:33:55.683Z,100400.78
2022-12-31T00:36:28.462Z,100411.00
2022-12-31T00:38:56.808Z,100402.44
2022-12-31T00:41:24.307Z,100411.19
2022-12-31T00:43:51.077Z,100408.72
2022-12-31T00:46:18.510Z,100403.06
2022-12-31T00:48:45.698Z,100418.50
2022-12-31T00:51:15.407Z,100410.16
2022-12-31T00:53:42.077Z,100417.25
2022-12-31T00:56:14.517Z,100421.00
2022-12-31T00:58:41.588Z,100418.91
2022-12-31T01:01:17.405Z,100424.13
2022-12-31T01:03:44.744Z,100418.47
2022-12-31T01:06:11.925Z,100422.44
2022-12-31T01:08:39.019Z,100428.72
2022-12-31T01:11:24.161Z,100421.41
2022-12-31T01:13:56.261Z,100431.00
2022-12-31T01:16:25.674Z,100429.09
2022-12-31T01:18:52.616Z,100436.41
2022-12-31T01:21:22.868Z,100449.97
2022-12-31T01:23:49.504Z,100458.06
2022-12-31T01:26:18.302Z,100456.81
2022-12-31T01:28:45.423Z,100466.44
2022-12-31T01:31:14.709Z,100464.94
2022-12-31T01:33:42.072Z,100461.22
2022-12-31T01:36:11.773Z,100460.56
2022-12-31T01:38:39.030Z,100462.44
2022-12-31T01:41:06.215Z,100467.63
2022-12-31T01:43:49.820Z,100469.75
2022-12-31T01:46:29.165Z,100472.31
2022-12-31T01:49:13.648Z,100469.19
2022-12-31T01:51:43.027Z,100464.56
2022-12-31T01:54:12.984Z,100468.09
2022-12-31T01:56:42.319Z,100469.56
2022-12-31T01:59:11.117Z,100469.72
2022-12-31T02:01:38.895Z,100474.91
2022-12-31T02:04:09.659Z,100470.91
2022-12-31T02:06:44.511Z,100479.00
2022-12-31T02:09:12.073Z,100488.53
2022-12-31T02:11:38.856Z,100484.13
2022-12-31T02:14:13.344Z,100487.84
2022-12-31T02:16:58.792Z,100488.44
2022-12-31T02:19:43.380Z,100484.69
2022-12-31T02:22:43.022Z,100485.69
2022-12-31T02:25:27.587Z,100482.53
2022-12-31T02:28:31.687Z,100476.88
2022-12-31T02:31:12.187Z,100472.28
2022-12-31T02:33:45.779Z,100470.22
2022-12-31T02:36:20.538Z,100470.00
2022-12-31T02:38:48.602Z,100473.13
2022-12-31T02:41:43.116Z,100463.91
2022-12-31T02:44:26.187Z,100477.72
2022-12-31T02:46:52.771Z,100478.53
2022-12-31T02:50:00.517Z,100483.97
2022-12-31T02:52:45.888Z,100483.31
2022-12-31T02:55:22.257Z,100465.00
2022-12-31T02:58:02.080Z,100475.47
2022-12-31T03:00:51.926Z,100469.81
2022-12-31T03:03:20.369Z,100466.00
2022-12-31T03:05:50.087Z,100474.75
2022-12-31T03:08:24.362Z,100463.91
2022-12-31T03:10:51.321Z,100478.06
2022-12-31T03:13:18.389Z,100470.50
2022-12-31T03:15:44.967Z,100470.13
2022-12-31T03:18:17.486Z,100462.66
2022-12-31T03:21:06.016Z,100459.94
2022-12-31T03:23:50.217Z,100466.41
2022-12-31T03:26:16.862Z,100473.41
2022-12-31T03:28:47.861Z,100482.19
2022-12-31T03:31:14.958Z,100478.19
2022-12-31T03:33:42.060Z,100465.72
2022-12-31T03:36:11.926Z,100459.06
2022-12-31T03:38:38.570Z,100468.78
2022-12-31T03:41:05.620Z,100461.25
2022-12-31T03:43:32.239Z,100467.91
2022-12-31T03:46:01.277Z,100472.47
2022-12-31T03:48:27.979Z,100462.50
2022-12-31T03:50:54.664Z,100469.78
2022-12-31T03:53:21.375Z,100464.56
2022-12-31T03:55:52.528Z,100452.91
2022-12-31T03:58:19.354Z,100448.75
2022-12-31T04:00:45.990Z,100462.94
2022-12-31T04:03:12.657Z,100455.00
2022-12-31T04:05:39.406Z,100455.41
2022-12-31T04:08:06.030Z,100443.34
2022-12-31T04:10:32.643Z,100442.75
2022-12-31T04:13:01.617Z,100437.47
2022-12-31T04:15:28.317Z,100429.84
2022-12-31T04:17:54.861Z,100425.47
2022-12-31T04:20:21.513Z,100431.50
2022-12-31T04:22:48.110Z,100436.06
2022-12-31T04:25:14.791Z,100434.63
2022-12-31T04:27:43.724Z,100432.97
2022-12-31T04:30:12.394Z,100420.00
2022-12-31T04:32:39.111Z,100431.84
2022-12-31T04:35:07.511Z,100433.22
2022-12-31T04:37:34.113Z,100431.16
2022-12-31T04:40:05.825Z,100427.81
2022-12-31T04:42:33.117Z,100421.09
2022-12-31T04:44:59.706Z,100436.72
2022-12-31T04:47:26.488Z,100442.13
2022-12-31T04:49:53.097Z,100440.47
2022-12-31T04:52:19.747Z,100439.88
2022-12-31T04:54:46.315Z,100439.66
2022-12-31T04:57:12.923Z,100423.00
2022-12-31T04:59:39.515Z,100419.03
2022-12-31T05:02:06.171Z,100424.25
2022-12-31T05:04:33.005Z,100407.16
2022-12-31T05:06:59.599Z,100399.94
2022-12-31T05:09:27.553Z,100416.56
2022-12-31T05:11:54.234Z,100419.22
2022-12-31T05:14:20.993Z,100422.38
2022-12-31T05:16:47.826Z,100413.81
2022-12-31T05:19:14.461Z,100411.72
2022-12-31T05:21:41.015Z,100414.66
2022-12-31T05:24:08.125Z,100403.28
2022-12-31T05:26:35.091Z,100403.00
2022-12-31T05:29:01.715Z,100408.63
2022-12-31T05:31:28.388Z,100385.66
2022-12-31T05:33:55.084Z,100392.00
2022-12-31T05:36:21.711Z,100390.50
2022-12-31T05:38:48.358Z,100391.56
2022-12-31T05:41:14.909Z,100383.53
2022-12-31T05:43:41.454Z,100394.69
2022-12-31T05:46:08.338Z,100392.88
2022-12-31T05:48:34.948Z,100390.38
2022-12-31T05:51:01.616Z,100387.88
2022-12-31T05:53:28.207Z,100384.59
2022-12-31T05:55:54.778Z,100388.13
2022-12-31T05:58:21.534Z,100386.66
2022-12-31T06:00:48.105Z,100385.00
2022-12-31T06:03:14.980Z,100387.81
2022-12-31T06:05:43.061Z,100379.31
2022-12-31T06:08:11.403Z,100391.84
2022-12-31T06:10:38.669Z,100378.50
2022-12-31T06:13:05.257Z,100380.00
2022-12-31T06:15:32.259Z,100377.22
2022-12-31T06:17:58.979Z,100392.00
2022-12-31T06:20:25.606Z,100371.19
2022-12-31T06:22:52.240Z,100367.69
2022-12-31T06:25:18.978Z,100359.34
2022-12-31T06:27:45.530Z,100360.78
2022-12-31T06:30:12.777Z,100358.09
2022-12-31T06:32:40.736Z,100353.75
2022-12-31T06:35:08.443Z,100351.25
2022-12-31T06:37:35.193Z,100350.22
2022-12-31T06:40:01.798Z,100352.72
2022-12-31T06:42:31.028Z,100344.75
2022-12-31T06:45:00.445Z,100346.72
2022-12-31T06:47:27.055Z,100353.59
2022-12-31T06:49:53.619Z,100345.09
2022-12-31T06:52:20.868Z,100362.13
2022-12-31T06:54:48.379Z,100368.03
2022-12-31T06:57:15.488Z,100355.06
2022-12-31T06:59:42.473Z,100356.72
2022-12-31T07:02:24.119Z,100373.03
2022-12-31T07:05:00.694Z,100358.72
2022-12-31T07:07:34.875Z,100364.13
2022-12-31T07:10:29.906Z,100368.91
2022-12-31T07:13:30.869Z,100360.22
2022-12-31T07:16:30.074Z,100363.66
2022-12-31T07:19:20.588Z,100366.34
2022-12-31T07:21:49.781Z,100350.75
2022-12-31T07:24:16.917Z,100348.91
2022-12-31T07:27:07.697Z,100349.34
2022-12-31T07:30:04.936Z,100348.72
2022-12-31T07:32:52.962Z,100337.69
2022-12-31T07:35:42.799Z,100335.00
2022-12-31T07:38:23.093Z,100343.97
2022-12-31T07:41:10.351Z,100358.13
2022-12-31T07:43:59.899Z,100351.03
2022-12-31T07:46:49.314Z,100373.06
2022-12-31T07:49:16.198Z,100372.03
2022-12-31T07:51:43.229Z,100369.53
2022-12-31T07:54:13.914Z,100368.22
2022-12-31T07:56:42.234Z,100365.94
2022-12-31T07:59:31.111Z,100370.09
2022-12-31T08:02:06.576Z,100368.22
2022-12-31T08:04:51.633Z,100375.72
2022-12-31T08:07:36.878Z,100365.47
2022-12-31T08:10:31.679Z,100378.34
2022-12-31T08:13:04.203Z,100381.66
2022-12-31T08:15:31.535Z,100376.41
2022-12-31T08:17:58.421Z,100379.72
2022-12-31T08:20:26.185Z,100374.31
2022-12-31T08:23:11.502Z,100386.59
2022-12-31T08:25:46.937Z,100376.41
2022-12-31T08:28:41.116Z,100369.13
2022-12-31T08:31:17.025Z,100349.31
2022-12-31T08:34:05.951Z,100348.97
2022-12-31T08:36:45.662Z,100368.34
2022-12-31T08:39:40.868Z,100372.72
2022-12-31T08:42:31.139Z,100371.63
2022-12-31T08:45:26.016Z,100362.25
2022-12-31T08:48:03.093Z,100370.16
2022-12-31T08:50:30.337Z,100366.81
2022-12-31T08:52:57.278Z,100367.25
2022-12-31T08:55:24.130Z,100379.09
2022-12-31T08:58:16.668Z,100377.28
2022-12-31T09:00:43.772Z,100381.41
2022-12-31T09:03:40.954Z,100383.25
2022-12-31T09:06:55.054Z,100382.00
2022-12-31T09:09:40.555Z,100379.09
2022-12-31T09:12:24.710Z,100385.94
2022-12-31T09:15:03.843Z,100390.06
2022-12-31T09:17:42.502Z,100377.44
2022-12-31T09:20:41.845Z,100386.84
2022-12-31T09:23:10.756Z,100383.69
2022-12-31T09:25:46.595Z,100384.31
2022-12-31T09:28:36.878Z,100383.53
2022-12-31T09:31:11.294Z,100399.91
2022-12-31T09:33:55.169Z,100395.94
2022-12-31T09:36:30.391Z,100386.38
2022-12-31T09:39:15.388Z,100409.47
2022-12-31T09:42:19.121Z,100404.66
2022-12-31T09:45:07.652Z,100399.06
2022-12-31T09:47:43.189Z,100402.81
2022-12-31T09:50:32.892Z,100412.78
2022-12-31T09:53:37.134Z,100405.94
2022-12-31T09:56:36.380Z,100405.50
2022-12-31T09:59:26.996Z,100406.13
2022-12-31T10:02:03.120Z,100406.97
2022-12-31T10:04:57.722Z,100407.56
2022-12-31T10:07:56.122Z,100406.75
2022-12-31T10:10:37.919Z,100391.38
2022-12-31T10:13:10.437Z,100384.34
2022-12-31T10:16:01.927Z,100390.63
2022-12-31T10:18:39.564Z,100387.09
2022-12-31T10:21:43.351Z,100398.97
2022-12-31T10:24:40.824Z,100388.78
2022-12-31T10:27:42.923Z,100407.31
2022-12-31T10:30:24.249Z,100417.31
2022-12-31T10:33:24.240Z,100397.72
2022-12-31T10:36:09.708Z,100401.91
2022-12-31T10:38:51.689Z,100404.78
2022-12-31T10:41:36.334Z,100401.00
2022-12-31T10:44:09.043Z,100400.38
2022-12-31T10:46:35.606Z,100399.34
2022-12-31T10:49:17.904Z,100407.06
2022-12-31T10:52:05.997Z,100416.13
2022-12-31T10:54:55.299Z,100419.28
2022-12-31T10:58:03.629Z,100403.28
2022-12-31T11:00:40.924Z,100396.78
2022-12-31T11:03:29.631Z,100405.78
2022-12-31T11:06:21.368Z,100412.03
2022-12-31T11:09:02.865Z,100414.97
2022-12-31T11:11:46.236Z,100419.34
2022-12-31T11:14:27.692Z,100412.31
2022-12-31T11:17:19.068Z,100409.66
2022-12-31T11:19:57.568Z,100427.38
2022-12-31T11:22:39.334Z,100419.44
2022-12-31T11:25:11.814Z,100410.50
2022-12-31T11:27:42.738Z,100412.38
2022-12-31T11:30:23.678Z,100409.66
2022-12-31T11:33:20.885Z,100418.63
2022-12-31T11:35:56.535Z,100414.50
2022-12-31T11:38:28.471Z,100405.56
2022-12-31T11:41:16.833Z,100398.56
2022-12-31T11:43:56.765Z,100400.41
2022-12-31T11:46:34.048Z,100398.13
2022-12-31T11:49:24.632Z,100393.16
2022-12-31T11:51:54.055Z,100380.63
2022-12-31T11:54:39.229Z,100408.31
2022-12-31T11:57:16.450Z,100388.09
2022-12-31T11:59:43.228Z,100400.78
2022-12-31T12:02:26.295Z,100392.25
2022-12-31T12:04:55.186Z,100396.16
2022-12-31T12:07:22.032Z,100416.06
2022-12-31T12:09:50.031Z,100409.81
2022-12-31T12:12:16.634Z,100415.44
2022-12-31T12:14:46.968Z,100413.16
2022-12-31T12:17:26.835Z,100417.09
2022-12-31T12:19:55.440Z,100416.84
2022-12-31T12:22:25.005Z,100421.59
2022-12-31T12:24:54.307Z,100404.53
2022-12-31T12:27:24.181Z,100412.66
2022-12-31T12:29:50.869Z,100418.25
2022-12-31T12:32:20.495Z,100400.16
2022-12-31T12:34:49.813Z,100406.41
2022-12-31T12:37:33.146Z,100398.91
2022-12-31T12:40:21.226Z,100410.97
2022-12-31T12:42:49.097Z,100423.81
2022-12-31T12:45:19.348Z,100420.25
2022-12-31T12:47:49.091Z,100432.13
2022-12-31T12:50:38.544Z,100428.59
2022-12-31T12:53:23.599Z,100436.22
2022-12-31T12:56:06.568Z,100425.25
2022-12-31T12:58:52.470Z,100430.41
2022-12-31T13:01:42.655Z,100441.81
2022-12-31T13:04:33.884Z,100438.41
2022-12-31T13:07:19.399Z,100435.91
2022-12-31T13:10:04.073Z,100439.47
2022-12-31T13:13:13.338Z,100425.94
2022-12-31T13:15:29.469Z,100435.25
2022-12-31T13:18:36.089Z,100427.16
2022-12-31T13:21:24.007Z,100434.22
2022-12-31T13:23:58.544Z,100429.03
2022-12-31T13:26:35.884Z,100436.34
2022-12-31T13:29:05.646Z,100434.22
2022-12-31T13:31:36.341Z,100442.34
2022-12-31T13:34:25.850Z,100433.38
2022-12-31T13:36:57.534Z,100448.34
2022-12-31T13:39:27.517Z,100462.91
2022-12-31T13:42:22.823Z,100451.69
2022-12-31T13:45:02.336Z,100439.81
2022-12-31T13:47:53.897Z,100434.97
2022-12-31T13:50:20.541Z,100462.91
2022-12-31T13:52:57.875Z,100462.25
2022-12-31T13:55:35.741Z,100453.75
2022-12-31T13:58:16.157Z,100476.22
2022-12-31T14:01:01.588Z,100463.09
2022-12-31T14:03:49.545Z,100478.28
2022-12-31T14:06:25.251Z,100479.13
2022-12-31T14:08:53.553Z,100484.72
2022-12-31T14:11:31.984Z,100487.47
2022-12-31T14:14:18.963Z,100487.84
2022-12-31T14:17:01.957Z,100510.72
2022-12-31T14:19:41.325Z,100497.59
2022-12-31T14:22:20.296Z,100512.59
2022-12-31T14:24:50.628Z,100516.13
2022-12-31T14:27:36.390Z,100513.22
2022-12-31T14:30:25.848Z,100530.72
2022-12-31T14:33:10.882Z,100528.47
2022-12-31T14:35:40.299Z,100542.56
2022-12-31T14:38:19.864Z,100550.09
2022-12-31T14:41:12.099Z,100545.31
2022-12-31T14:44:00.051Z,100550.72
2022-12-31T14:47:01.111Z,100552.22
2022-12-31T14:49:49.088Z,100564.06
2022-12-31T14:52:15.639Z,100562.38
2022-12-31T14:54:42.782Z,100568.25
2022-12-31T14:57:16.996Z,100569.47
2022-12-31T14:59:58.330Z,100588.59
2022-12-31T15:02:34.750Z,100587.53
2022-12-31T15:05:16.107Z,100597.72
2022-12-31T15:07:48.943Z,100594.38
2022-12-31T15:10:39.490Z,100600.63
2022-12-31T15:13:14.118Z,100608.16
2022-12-31T15:15:43.575Z,100610.22
2022-12-31T15:18:31.096Z,100613.94
2022-12-31T15:21:08.679Z,100613.94
2022-12-31T15:23:44.832Z,100614.72
2022-12-31T15:26:24.397Z,100610.22
2022-12-31T15:29:03.996Z,100612.00
2022-12-31T15:31:33.224Z,100591.75
2022-12-31T15:34:21.194Z,100624.38
2022-12-31T15:36:54.510Z,100617.06
2022-12-31T15:39:42.531Z,100624.06
2022-12-31T15:42:43.359Z,100621.97
2022-12-31T15:45:22.460Z,100619.28
2022-12-31T15:47:56.306Z,100619.25
2022-12-31T15:50:24.002Z,100636.72
2022-12-31T15:52:55.212Z,100634.63
2022-12-31T15:55:37.793Z,100624.06
2022-12-31T15:58:11.299Z,100618.44
2022-12-31T16:01:21.937Z,100615.53
2022-12-31T16:04:01.924Z,100631.97
2022-12-31T16:06:30.946Z,100643.41
2022-12-31T16:08:57.685Z,100648.47
2022-12-31T16:11:25.198Z,100645.91
2022-12-31T16:13:55.392Z,100653.75
2022-12-31T16:16:31.551Z,100639.75
2022-12-31T16:18:59.510Z,100645.16
2022-12-31T16:21:34.139Z,100655.97
2022-12-31T16:24:06.531Z,100661.84
2022-12-31T16:26:48.986Z,100650.00
2022-12-31T16:29:18.040Z,100646.47
2022-12-31T16:31:46.657Z,100651.03
2022-12-31T16:34:24.755Z,100651.03
2022-12-31T16:37:01.019Z,100643.75
2022-12-31T16:39:33.088Z,100648.34
2022-12-31T16:42:14.147Z,100636.03
2022-12-31T16:44:41.542Z,100649.38
2022-12-31T16:47:15.213Z,100647.22
2022-12-31T16:49:42.887Z,100656.66
2022-12-31T16:52:28.012Z,100662.69
2022-12-31T16:54:55.906Z,100673.91
2022-12-31T16:57:25.679Z,100659.78
2022-12-31T16:59:57.330Z,100667.63
2022-12-31T17:02:47.635Z,100669.34
2022-12-31T17:05:26.263Z,100674.25
2022-12-31T17:07:52.969Z,100695.69
2022-12-31T17:10:33.981Z,100690.50
2022-12-31T17:15:50.615Z,100682.94
2022-12-31T17:18:23.909Z,100689.38
2022-12-31T17:20:52.454Z,100689.72
2022-12-31T17:23:28.797Z,100680.50
2022-12-31T17:26:00.461Z,100683.22
2022-12-31T17:28:32.208Z,100683.84
2022-12-31T17:31:01.740Z,100675.94
2022-12-31T17:33:30.845Z,100672.19
2022-12-31T17:36:15.354Z,100678.09
2022-12-31T17:38:42.518Z,100681.81
2022-12-31T17:41:25.811Z,100677.25
2022-12-31T17:43:56.854Z,100682.84
2022-12-31T17:46:25.269Z,100679.94
2022-12-31T17:48:57.131Z,100689.25
2022-12-31T17:51:24.825Z,100693.09
2022-12-31T17:53:51.500Z,100693.09
2022-12-31T17:56:19.692Z,100679.38
2022-12-31T17:58:52.675Z,100672.47
2022-12-31T18:01:22.470Z,100676.00
2022-12-31T18:03:50.119Z,100675.75
2022-12-31T18:06:17.916Z,100671.63
2022-12-31T18:08:44.523Z,100688.06
2022-12-31T18:11:23.815Z,100691.47
2022-12-31T18:13:50.887Z,100674.06
2022-12-31T18:16:17.678Z,100681.34
2022-12-31T18:18:45.489Z,100681.75
2022-12-31T18:21:24.908Z,100677.03
2022-12-31T18:23:51.535Z,100679.75
2022-12-31T18:26:20.616Z,100692.50
2022-12-31T18:28:47.859Z,100679.75
2022-12-31T18:31:23.454Z,100682.28
2022-12-31T18:33:51.617Z,100682.72
2022-12-31T18:36:20.104Z,100678.56
2022-12-31T18:38:47.071Z,100679.94
2022-12-31T18:41:22.456Z,100678.38
2022-12-31T18:43:49.688Z,100693.28
2022-12-31T18:46:24.076Z,100696.06
2022-12-31T18:48:50.694Z,100702.69
2022-12-31T18:51:31.515Z,100667.53
2022-12-31T18:54:03.018Z,100677.13
2022-12-31T18:56:29.617Z,100676.88
2022-12-31T18:58:56.235Z,100683.75
2022-12-31T19:01:34.835Z,100689.16
2022-12-31T19:04:11.328Z,100693.34
2022-12-31T19:06:37.960Z,100689.38
2022-12-31T19:09:13.250Z,100689.41
2022-12-31T19:11:51.493Z,100688.19
2022-12-31T19:14:21.805Z,100690.25
2022-12-31T19:16:49.120Z,100682.97
2022-12-31T19:19:15.816Z,100674.84
2022-12-31T19:21:42.912Z,100680.66
2022-12-31T19:24:19.671Z,100679.63
2022-12-31T19:26:46.757Z,100673.97
2022-12-31T19:29:25.131Z,100673.97
2022-12-31T19:31:52.381Z,100671.00
2022-12-31T19:34:19.022Z,100687.31
2022-12-31T19:36:45.722Z,100689.94
2022-12-31T19:39:17.750Z,100685.56
2022-12-31T19:41:47.536Z,100678.28
2022-12-31T19:44:18.608Z,100684.13
2022-12-31T19:46:46.709Z,100684.53
2022-12-31T19:49:14.385Z,100674.34
2022-12-31T19:51:41.859Z,100678.63
2022-12-31T19:54:08.677Z,100661.38
2022-12-31T19:56:35.650Z,100670.16
2022-12-31T19:59:10.135Z,100660.19
2022-12-31T20:01:37.032Z,100664.94
2022-12-31T20:04:03.837Z,100672.66
2022-12-31T20:06:30.424Z,100655.34
2022-12-31T20:08:57.026Z,100647.44
2022-12-31T20:11:24.710Z,100657.78
2022-12-31T20:13:53.635Z,100658.44
2022-12-31T20:16:23.487Z,100650.50
2022-12-31T20:18:51.070Z,100657.13
2022-12-31T20:21:29.163Z,100665.53
2022-12-31T20:23:56.220Z,100657.72
2022-12-31T20:26:24.671Z,100663.56
2022-12-31T20:28:52.139Z,100662.16
2022-12-31T20:31:22.975Z,100662.63
2022-12-31T20:33:49.595Z,100652.56
2022-12-31T20:36:17.388Z,100664.47
2022-12-31T20:38:44.554Z,100669.41
2022-12-31T20:41:14.137Z,100665.53
2022-12-31T20:43:40.920Z,100672.13
2022-12-31T20:46:15.543Z,100677.44
2022-12-31T20:48:43.776Z,100672.41
2022-12-31T20:51:10.362Z,100671.00
2022-12-31T20:53:37.121Z,100683.13
2022-12-31T20:56:08.561Z,100694.81
2022-12-31T20:58:36.102Z,100684.41
2022-12-31T21:01:07.045Z,100690.44
2022-12-31T21:04:04.148Z,100682.28
2022-12-31T21:06:23.037Z,100687.94
2022-12-31T21:08:49.775Z,100676.69
2022-12-31T21:11:35.456Z,100679.00
2022-12-31T21:14:02.718Z,100676.00
2022-12-31T21:16:29.468Z,100680.22
2022-12-31T21:18:56.162Z,100685.44
2022-12-31T21:21:23.551Z,100681.91
2022-12-31T21:23:51.297Z,100672.09
2022-12-31T21:26:17.968Z,100673.78
2022-12-31T21:28:44.659Z,100673.78
2022-12-31T21:31:13.521Z,100683.13
2022-12-31T21:33:44.215Z,100689.16
2022-12-31T21:36:11.522Z,100693.94
2022-12-31T21:38:38.242Z,100698.69
2022-12-31T21:41:07.277Z,100694.31
2022-12-31T21:43:34.013Z,100697.28
2022-12-31T21:46:06.914Z,100693.34
2022-12-31T21:48:33.727Z,100688.91
2022-12-31T21:51:14.880Z,100677.31
2022-12-31T21:53:41.507Z,100683.75
2022-12-31T21:56:09.684Z,100689.81
2022-12-31T21:58:41.700Z,100691.03
2022-12-31T22:01:34.758Z,100693.16
2022-12-31T22:04:01.461Z,100693.53
2022-12-31T22:06:28.143Z,100703.13
2022-12-31T22:08:55.997Z,100705.00
2022-12-31T22:11:25.435Z,100707.31
2022-12-31T22:13:52.613Z,100716.06
2022-12-31T22:16:20.452Z,100715.06
2022-12-31T22:18:47.433Z,100713.34
2022-12-31T22:21:20.729Z,100707.13
2022-12-31T22:23:52.550Z,100718.59
2022-12-31T22:26:21.890Z,100716.25
2022-12-31T22:28:49.075Z,100712.53
2022-12-31T22:31:24.547Z,100731.66
2022-12-31T22:33:51.347Z,100735.59
2022-12-31T22:36:21.113Z,100746.00
2022-12-31T22:38:48.983Z,100748.34
2022-12-31T22:41:20.564Z,100758.13
2022-12-31T22:43:58.686Z,100758.34
2022-12-31T22:46:29.161Z,100750.56
2022-12-31T22:48:59.071Z,100756.06
2022-12-31T22:51:54.888Z,100736.84
2022-12-31T22:54:13.778Z,100737.69
2022-12-31T22:56:40.924Z,100728.69
2022-12-31T22:59:07.544Z,100742.66
2022-12-31T23:01:34.532Z,100747.88
2022-12-31T23:04:01.408Z,100756.00
2022-12-31T23:06:29.097Z,100749.19
2022-12-31T23:09:14.743Z,100769.50
2022-12-31T23:11:43.149Z,100760.50
2022-12-31T23:14:34.354Z,100773.19
2022-12-31T23:17:31.502Z,100774.03
2022-12-31T23:20:18.455Z,100771.53
2022-12-31T23:23:04.536Z,100769.81
2022-12-31T23:25:33.502Z,100785.69
2022-12-31T23:28:00.098Z,100772.16
2022-12-31T23:30:26.830Z,100769.66
2022-12-31T23:32:53.546Z,100767.59
2022-12-31T23:35:20.234Z,100775.31
2022-12-31T23:37:46.986Z,100770.09
2022-12-31T23:40:20.675Z,100759.69
2022-12-31T23:42:48.117Z,100768.56
2022-12-31T23:45:14.893Z,100761.53
2022-12-31T23:47:41.740Z,100772.75
2022-12-31T23:50:08.726Z,100783.69
2022-12-31T23:52:35.512Z,100783.69
2022-12-31T23:55:03.589Z,100782.09
2022-12-31T23:57:30.379Z,100782.09
2022-12-31T23:59:56.994Z,100771.06
